createdAt,value
2019-03-24T00:00:36.774Z,16.30
2019-03-24T00:03:03.477Z,16.27
2019-03-24T00:05:30.154Z,16.10
2019-03-24T00:07:56.999Z,16.20
2019-03-24T00:10:23.711Z,16.07
2019-03-24T00:12:50.331Z,14.93
2019-03-24T00:15:25.825Z,16.07
2019-03-24T00:17:45.378Z,16.70
2019-03-24T00:20:12.871Z,16.13
2019-03-24T00:22:39.528Z,15.93
2019-03-24T00:25:06.614Z,15.97
2019-03-24T00:27:33.402Z,16.33
2019-03-24T00:30:00.050Z,16.53
2019-03-24T00:32:27.399Z,19.03
2019-03-24T00:34:54.083Z,17.13
2019-03-24T00:37:20.799Z,15.00
2019-03-24T00:40:43.511Z,14.60
2019-03-24T00:43:10.626Z,14.17
2019-03-24T00:45:37.409Z,17.10
2019-03-24T00:48:04.325Z,21.00
2019-03-24T00:50:30.954Z,19.37
2019-03-24T00:52:59.521Z,15.57
2019-03-24T00:55:26.090Z,16.97
2019-03-24T00:57:52.848Z,15.37
2019-03-24T01:00:25.245Z,13.80
2019-03-24T01:02:51.861Z,12.73
2019-03-24T01:05:18.651Z,12.13
2019-03-24T01:07:45.416Z,16.83
2019-03-24T01:10:12.493Z,13.77
2019-03-24T01:12:39.060Z,13.17
2019-03-24T01:15:07.467Z,13.53
2019-03-24T01:17:34.869Z,13.70
2019-03-24T01:20:01.826Z,25.40
2019-03-24T01:22:28.663Z,14.53
2019-03-24T01:24:55.350Z,17.63
2019-03-24T01:27:21.929Z,14.53
2019-03-24T01:29:48.713Z,13.87
2019-03-24T01:32:15.293Z,14.60
2019-03-24T01:34:41.971Z,12.37
2019-03-24T01:37:08.803Z,13.57
2019-03-24T01:39:35.365Z,11.90
2019-03-24T01:42:02.011Z,13.57
2019-03-24T01:44:28.799Z,11.07
2019-03-24T01:46:55.462Z,11.13
2019-03-24T01:49:22.229Z,11.23
2019-03-24T01:51:48.842Z,12.00
2019-03-24T01:54:15.524Z,11.17
2019-03-24T01:56:42.291Z,11.00
2019-03-24T01:59:08.896Z,11.00
2019-03-24T02:01:35.686Z,9.27
2019-03-24T02:04:02.496Z,9.63
2019-03-24T02:06:29.206Z,9.97
2019-03-24T02:08:55.871Z,9.03
2019-03-24T02:11:22.463Z,9.00
2019-03-24T02:13:49.243Z,8.87
2019-03-24T02:16:15.931Z,7.97
2019-03-24T02:18:42.651Z,7.67
2019-03-24T02:21:09.304Z,7.53
2019-03-24T02:23:35.894Z,7.53
2019-03-24T02:26:02.493Z,8.07
2019-03-24T02:28:29.224Z,6.47
2019-03-24T02:30:55.827Z,7.57
2019-03-24T02:33:22.450Z,7.20
2019-03-24T02:35:49.137Z,6.87
2019-03-24T02:38:15.760Z,7.07
2019-03-24T02:40:42.483Z,6.60
2019-03-24T02:43:09.113Z,6.50
2019-03-24T02:45:35.784Z,6.83
2019-03-24T02:48:02.623Z,6.93
2019-03-24T02:50:29.265Z,7.10
2019-03-24T02:52:55.872Z,6.37
2019-03-24T02:55:22.610Z,6.17
2019-03-24T02:57:49.192Z,7.10
2019-03-24T03:00:16.365Z,7.03
2019-03-24T03:02:43.286Z,7.03
2019-03-24T03:05:10.174Z,7.47
2019-03-24T03:07:38.111Z,6.83
2019-03-24T03:10:07.496Z,6.67
2019-03-24T03:12:34.256Z,7.17
2019-03-24T03:15:00.848Z,6.23
2019-03-24T03:17:27.678Z,7.43
2019-03-24T03:19:54.306Z,7.60
2019-03-24T03:22:21.054Z,6.73
2019-03-24T03:24:47.751Z,6.70
2019-03-24T03:27:14.440Z,6.07
2019-03-24T03:29:41.031Z,7.10
2019-03-24T03:32:07.601Z,6.87
2019-03-24T03:35:30.640Z,6.77
2019-03-24T03:37:57.294Z,6.63
2019-03-24T03:40:23.930Z,5.73
2019-03-24T03:42:50.492Z,7.37
2019-03-24T03:45:22.814Z,7.30
2019-03-24T03:47:49.521Z,7.93
2019-03-24T03:50:16.515Z,7.90
2019-03-24T03:52:43.250Z,7.70
2019-03-24T03:55:10.242Z,7.50
2019-03-24T03:57:36.940Z,7.77
2019-03-24T04:00:07.775Z,7.90
2019-03-24T04:02:34.589Z,9.83
2019-03-24T04:05:05.053Z,9.93
2019-03-24T04:07:31.830Z,8.63
2019-03-24T04:09:58.441Z,9.30
2019-03-24T04:12:25.156Z,11.83
2019-03-24T04:14:51.771Z,11.60
2019-03-24T04:17:18.469Z,11.40
2019-03-24T04:19:45.036Z,11.40
2019-03-24T04:22:11.739Z,13.43
2019-03-24T04:24:38.496Z,14.00
2019-03-24T04:27:05.066Z,12.60
2019-03-24T04:29:31.683Z,13.93
2019-03-24T04:31:58.616Z,13.07
2019-03-24T04:35:21.766Z,13.83
2019-03-24T04:37:48.503Z,14.93
2019-03-24T04:40:15.222Z,15.10
2019-03-24T04:42:41.786Z,16.13
2019-03-24T04:45:08.907Z,15.80
2019-03-24T04:47:35.616Z,14.23
2019-03-24T04:50:06.838Z,14.97
2019-03-24T04:52:33.716Z,14.60
2019-03-24T04:55:00.342Z,13.30
2019-03-24T04:57:26.995Z,14.87
2019-03-24T04:59:53.572Z,14.70
2019-03-24T05:02:20.478Z,13.17
2019-03-24T05:04:48.264Z,14.67
2019-03-24T05:07:16.654Z,14.23
2019-03-24T05:09:44.972Z,13.20
2019-03-24T05:12:11.577Z,14.07
2019-03-24T05:14:38.156Z,14.30
2019-03-24T05:17:04.872Z,13.33
2019-03-24T05:19:31.430Z,14.57
2019-03-24T05:21:58.001Z,14.43
2019-03-24T05:24:24.651Z,13.60
2019-03-24T05:26:51.334Z,13.27
2019-03-24T05:29:17.951Z,12.90
2019-03-24T05:31:44.558Z,13.33
2019-03-24T05:34:11.445Z,13.50
2019-03-24T05:36:38.212Z,13.40
2019-03-24T05:39:08.837Z,13.50
2019-03-24T05:41:35.589Z,13.73
2019-03-24T05:44:02.551Z,13.10
2019-03-24T05:46:29.315Z,13.20
2019-03-24T05:48:55.891Z,13.00
2019-03-24T05:51:22.623Z,12.77
2019-03-24T05:53:49.161Z,11.70
2019-03-24T05:56:15.773Z,12.60
2019-03-24T05:58:43.578Z,10.80
2019-03-24T06:01:10.240Z,11.60
2019-03-24T06:03:36.972Z,10.43
2019-03-24T06:06:03.748Z,11.00
2019-03-24T06:08:30.424Z,11.20
2019-03-24T06:10:57.071Z,11.27
2019-03-24T06:13:23.667Z,11.23
2019-03-24T06:15:50.278Z,12.30
2019-03-24T06:18:16.841Z,11.17
2019-03-24T06:20:43.582Z,11.63
2019-03-24T06:23:10.293Z,11.53
2019-03-24T06:25:36.840Z,12.17
2019-03-24T06:28:59.689Z,10.30
2019-03-24T06:31:27.593Z,10.10
2019-03-24T06:33:54.355Z,11.30
2019-03-24T06:36:20.908Z,10.20
2019-03-24T06:38:47.518Z,9.73
2019-03-24T06:41:14.074Z,12.17
2019-03-24T06:43:40.631Z,11.53
2019-03-24T06:46:07.296Z,12.60
2019-03-24T06:48:34.029Z,11.27
2019-03-24T06:51:00.623Z,8.73
2019-03-24T06:53:27.195Z,10.47
2019-03-24T06:55:53.795Z,8.73
2019-03-24T06:58:20.399Z,8.67
2019-03-24T07:00:47.077Z,6.97
2019-03-24T07:03:13.693Z,7.80
2019-03-24T07:05:40.518Z,6.83
2019-03-24T07:08:09.876Z,6.93
2019-03-24T07:10:36.540Z,6.73
2019-03-24T07:13:03.273Z,6.50
2019-03-24T07:15:29.936Z,6.10
2019-03-24T07:17:56.507Z,7.37
2019-03-24T07:20:23.160Z,6.77
2019-03-24T07:22:49.792Z,7.23
2019-03-24T07:25:16.910Z,6.50
2019-03-24T07:27:43.760Z,6.20
2019-03-24T07:30:10.982Z,6.37
2019-03-24T07:32:37.767Z,5.97
2019-03-24T07:35:05.857Z,6.67
2019-03-24T07:37:32.604Z,7.13
2019-03-24T07:39:59.283Z,6.73
2019-03-24T07:42:25.982Z,6.70
2019-03-24T07:44:52.563Z,6.87
2019-03-24T07:47:19.119Z,7.37
2019-03-24T07:49:45.833Z,6.50
2019-03-24T07:52:12.419Z,6.50
2019-03-24T07:54:41.243Z,6.27
2019-03-24T07:57:07.759Z,6.47
2019-03-24T07:59:34.560Z,8.00
2019-03-24T08:02:01.407Z,8.33
2019-03-24T08:04:28.309Z,7.93
2019-03-24T08:06:55.230Z,6.80
2019-03-24T08:09:22.026Z,7.37
2019-03-24T08:11:48.631Z,7.13
2019-03-24T08:14:15.377Z,7.83
2019-03-24T08:16:41.954Z,8.67
2019-03-24T08:19:08.679Z,8.07
2019-03-24T08:21:35.467Z,9.03
2019-03-24T08:24:02.246Z,8.87
2019-03-24T08:27:26.449Z,9.07
2019-03-24T08:29:53.183Z,10.33
2019-03-24T08:32:19.847Z,9.70
2019-03-24T08:34:48.359Z,10.33
2019-03-24T08:37:14.917Z,10.03
2019-03-24T08:39:41.659Z,10.33
2019-03-24T08:42:08.584Z,10.73
2019-03-24T08:44:35.742Z,10.43
2019-03-24T08:47:03.431Z,9.83
2019-03-24T08:49:30.271Z,10.13
2019-03-24T08:51:57.913Z,10.67
2019-03-24T08:54:24.706Z,11.27
2019-03-24T08:56:51.549Z,9.53
2019-03-24T08:59:18.320Z,9.80
2019-03-24T09:01:44.883Z,8.33
2019-03-24T09:04:11.736Z,9.10
2019-03-24T09:07:34.993Z,10.80
2019-03-24T09:10:02.292Z,8.43
2019-03-24T09:12:32.595Z,7.20
2019-03-24T09:14:59.194Z,7.43
2019-03-24T09:17:25.878Z,5.93
2019-03-24T09:19:52.678Z,5.63
2019-03-24T09:22:19.371Z,6.27
2019-03-24T09:24:45.896Z,7.00
2019-03-24T09:28:10.216Z,6.47
2019-03-24T09:30:37.792Z,5.33
2019-03-24T09:33:06.089Z,6.53
2019-03-24T09:35:32.944Z,6.97
2019-03-24T09:38:56.074Z,5.67
2019-03-24T09:41:22.659Z,6.00
2019-03-24T09:43:49.417Z,5.70
2019-03-24T09:46:15.983Z,5.97
2019-03-24T09:48:42.610Z,6.17
2019-03-24T09:51:10.413Z,6.00
2019-03-24T09:53:37.105Z,6.83
2019-03-24T09:56:05.648Z,6.93
2019-03-24T09:58:32.206Z,6.37
2019-03-24T10:00:58.958Z,5.70
2019-03-24T10:03:25.905Z,6.57
2019-03-24T10:05:52.572Z,7.03
2019-03-24T10:08:19.379Z,7.53
2019-03-24T10:10:46.055Z,6.10
2019-03-24T10:13:15.481Z,7.17
2019-03-24T10:15:42.991Z,7.67
2019-03-24T10:18:10.115Z,6.90
2019-03-24T10:20:36.752Z,7.23
2019-03-24T10:23:03.339Z,6.47
2019-03-24T10:25:30.064Z,6.30
2019-03-24T10:27:56.675Z,6.20
2019-03-24T10:30:23.488Z,5.80
2019-03-24T10:33:46.304Z,6.10
2019-03-24T10:36:13.017Z,4.90
2019-03-24T10:38:39.706Z,5.83
2019-03-24T10:41:06.330Z,5.50
2019-03-24T10:43:33.055Z,5.27
2019-03-24T10:45:59.715Z,5.00
2019-03-24T10:48:33.690Z,5.87
2019-03-24T10:50:55.002Z,12.63
2019-03-24T10:53:21.645Z,5.03
2019-03-24T10:55:48.423Z,8.87
2019-03-24T10:58:15.681Z,14.57
2019-03-24T11:00:42.928Z,24.93
2019-03-24T11:03:10.185Z,22.50
2019-03-24T11:05:37.155Z,4.80
2019-03-24T11:08:04.084Z,4.97
2019-03-24T11:10:30.962Z,6.53
2019-03-24T11:12:57.683Z,4.73
2019-03-24T11:15:24.385Z,4.57
2019-03-24T11:17:50.969Z,9.60
2019-03-24T11:20:17.865Z,6.83
2019-03-24T11:22:45.167Z,6.60
2019-03-24T11:25:12.307Z,5.00
2019-03-24T11:27:39.089Z,5.00
2019-03-24T11:30:10.799Z,5.20
2019-03-24T11:32:39.635Z,5.40
2019-03-24T11:35:08.776Z,5.20
2019-03-24T11:37:35.468Z,6.70
2019-03-24T11:40:06.471Z,4.60
2019-03-24T11:42:33.028Z,4.60
2019-03-24T11:44:59.770Z,4.03
2019-03-24T11:47:27.053Z,4.50
2019-03-24T11:49:57.049Z,4.00
2019-03-24T11:52:25.568Z,4.33
2019-03-24T11:54:52.158Z,4.60
2019-03-24T11:57:19.150Z,4.17
2019-03-24T11:59:46.019Z,4.47
2019-03-24T12:02:13.975Z,4.07
2019-03-24T12:04:40.589Z,4.33
2019-03-24T12:07:07.224Z,4.67
2019-03-24T12:09:33.846Z,6.70
2019-03-24T12:12:00.516Z,4.80
2019-03-24T12:14:27.095Z,4.53
2019-03-24T12:18:08.783Z,5.57
2019-03-24T12:20:35.614Z,4.37
2019-03-24T12:23:02.578Z,4.50
2019-03-24T12:25:29.440Z,4.87
2019-03-24T12:27:59.406Z,7.17
2019-03-24T12:30:27.277Z,7.77
2019-03-24T12:32:54.130Z,4.70
2019-03-24T12:35:20.686Z,5.63
2019-03-24T12:37:47.299Z,4.83
2019-03-24T12:40:14.389Z,4.50
2019-03-24T12:42:41.141Z,3.87
2019-03-24T12:45:11.936Z,4.40
2019-03-24T12:47:38.707Z,4.47
2019-03-24T12:50:09.613Z,5.93
2019-03-24T12:52:36.857Z,4.57
2019-03-24T12:55:05.145Z,4.20
2019-03-24T12:57:31.802Z,4.80
2019-03-24T12:59:58.403Z,4.97
2019-03-24T13:02:24.992Z,4.57
2019-03-24T13:04:51.707Z,4.20
2019-03-24T13:07:18.423Z,5.73
2019-03-24T13:09:45.021Z,3.87
2019-03-24T13:12:12.930Z,5.20
2019-03-24T13:14:39.751Z,4.00
2019-03-24T13:17:06.549Z,4.07
2019-03-24T13:19:35.893Z,4.27
2019-03-24T13:22:03.913Z,4.20
2019-03-24T13:24:32.618Z,4.30
2019-03-24T13:26:59.662Z,3.90
2019-03-24T13:29:26.265Z,3.17
2019-03-24T13:31:53.186Z,3.43
2019-03-24T13:34:21.778Z,3.20
2019-03-24T13:36:48.427Z,3.70
2019-03-24T13:39:15.084Z,3.20
2019-03-24T13:41:41.684Z,3.03
2019-03-24T13:44:11.450Z,2.80
2019-03-24T13:46:38.115Z,3.20
2019-03-24T13:49:05.040Z,3.50
2019-03-24T13:51:31.609Z,3.77
2019-03-24T13:53:58.166Z,3.07
2019-03-24T13:56:24.899Z,4.03
2019-03-24T13:59:48.172Z,6.47
2019-03-24T14:02:15.067Z,5.10
2019-03-24T14:04:41.711Z,3.80
2019-03-24T14:07:08.338Z,4.47
2019-03-24T14:10:31.555Z,4.40
2019-03-24T14:12:59.012Z,7.13
2019-03-24T14:15:25.562Z,4.30
2019-03-24T14:17:52.301Z,9.90
2019-03-24T14:20:18.917Z,7.10
2019-03-24T14:22:45.723Z,5.47
2019-03-24T14:25:12.648Z,5.30
2019-03-24T14:27:42.472Z,4.07
2019-03-24T14:30:11.365Z,6.93
2019-03-24T14:32:38.025Z,3.70
2019-03-24T14:35:06.168Z,3.07
2019-03-24T14:37:34.499Z,3.40
2019-03-24T14:40:03.939Z,3.30
2019-03-24T14:42:31.710Z,6.83
2019-03-24T14:44:58.443Z,3.90
2019-03-24T14:47:25.282Z,4.50
2019-03-24T14:49:51.846Z,4.87
2019-03-24T14:52:18.482Z,4.40
2019-03-24T14:54:45.420Z,4.23
2019-03-24T14:57:12.217Z,3.77
2019-03-24T14:59:39.254Z,3.83
2019-03-24T15:02:06.340Z,3.87
2019-03-24T15:04:33.062Z,4.03
2019-03-24T15:07:00.221Z,4.80
2019-03-24T15:09:30.071Z,4.00
2019-03-24T15:11:57.204Z,4.00
2019-03-24T15:14:23.887Z,4.43
2019-03-24T15:16:50.526Z,3.73
2019-03-24T15:19:17.097Z,4.17
2019-03-24T15:21:43.829Z,3.67
2019-03-24T15:24:10.850Z,4.03
2019-03-24T15:26:39.502Z,4.00
2019-03-24T15:29:06.397Z,4.47
2019-03-24T15:31:32.997Z,3.70
2019-03-24T15:33:59.676Z,2.90
2019-03-24T15:36:26.417Z,3.67
2019-03-24T15:38:53.110Z,3.63
2019-03-24T15:41:19.788Z,3.33
2019-03-24T15:43:47.692Z,3.87
2019-03-24T15:46:14.389Z,4.03
2019-03-24T15:48:41.065Z,3.47
2019-03-24T15:51:16.411Z,3.50
2019-03-24T15:53:36.274Z,3.73
2019-03-24T15:56:03.288Z,3.27
2019-03-24T15:58:30.013Z,3.90
2019-03-24T16:00:56.722Z,3.40
2019-03-24T16:03:23.328Z,3.70
2019-03-24T16:05:49.992Z,3.27
2019-03-24T16:08:16.682Z,4.20
2019-03-24T16:10:43.553Z,3.83
2019-03-24T16:13:10.374Z,3.90
2019-03-24T16:15:37.085Z,3.77
2019-03-24T16:18:04.021Z,3.40
2019-03-24T16:20:30.863Z,3.60
2019-03-24T16:22:57.581Z,3.80
2019-03-24T16:25:24.221Z,4.53
2019-03-24T16:28:47.347Z,4.43
2019-03-24T16:31:14.711Z,4.10
2019-03-24T16:33:41.449Z,4.10
2019-03-24T16:36:08.034Z,4.10
2019-03-24T16:38:34.626Z,4.10
2019-03-24T16:41:04.359Z,3.60
2019-03-24T16:43:31.402Z,3.80
2019-03-24T16:45:59.203Z,4.03
2019-03-24T16:48:36.197Z,4.03
2019-03-24T16:50:54.620Z,3.57
2019-03-24T16:53:21.195Z,3.83
2019-03-24T16:55:47.767Z,3.83
2019-03-24T16:59:13.895Z,4.73
2019-03-24T17:01:40.496Z,4.17
2019-03-24T17:04:07.108Z,4.70
2019-03-24T17:06:33.878Z,5.03
2019-03-24T17:09:00.576Z,4.87
2019-03-24T17:11:27.295Z,4.73
2019-03-24T17:13:53.951Z,4.57
2019-03-24T17:16:20.755Z,4.77
2019-03-24T17:18:47.442Z,4.67
2019-03-24T17:21:14.209Z,4.70
2019-03-24T17:23:40.786Z,4.83
2019-03-24T17:26:07.472Z,5.00
2019-03-24T17:28:34.117Z,5.70
2019-03-24T17:31:00.880Z,4.90
2019-03-24T17:33:27.575Z,5.43
2019-03-24T17:35:55.442Z,5.20
2019-03-24T17:38:23.272Z,5.50
2019-03-24T17:40:49.986Z,5.53
2019-03-24T17:43:16.834Z,6.00
2019-03-24T17:45:43.583Z,5.80
2019-03-24T17:48:10.273Z,6.40
2019-03-24T17:50:36.952Z,6.47
2019-03-24T17:53:03.812Z,6.87
2019-03-24T17:55:31.163Z,6.70
2019-03-24T17:58:54.356Z,6.83
2019-03-24T18:01:21.209Z,6.70
2019-03-24T18:03:48.040Z,8.10
2019-03-24T18:06:14.766Z,6.80
2019-03-24T18:08:41.440Z,8.40
2019-03-24T18:11:08.162Z,7.97
2019-03-24T18:13:34.886Z,7.57
2019-03-24T18:16:02.972Z,7.83
2019-03-24T18:19:26.036Z,7.63
2019-03-24T18:21:52.674Z,8.33
2019-03-24T18:24:20.634Z,8.47
2019-03-24T18:26:47.240Z,9.33
2019-03-24T18:29:13.889Z,11.00
2019-03-24T18:31:40.485Z,10.87
2019-03-24T18:34:07.170Z,10.40
2019-03-24T18:36:33.773Z,11.23
2019-03-24T18:39:00.347Z,10.87
2019-03-24T18:41:28.534Z,11.63
2019-03-24T18:43:55.274Z,10.50
2019-03-24T18:46:22.668Z,11.70
2019-03-24T18:48:49.282Z,13.00
2019-03-24T18:51:16.080Z,12.50
2019-03-24T18:53:42.752Z,14.30
2019-03-24T18:56:09.643Z,12.67
2019-03-24T18:58:36.317Z,12.53
2019-03-24T19:01:03.031Z,14.33
2019-03-24T19:03:29.816Z,15.63
2019-03-24T19:05:56.450Z,14.70
2019-03-24T19:08:23.057Z,14.13
2019-03-24T19:10:50.353Z,17.27
2019-03-24T19:13:17.140Z,19.80
2019-03-24T19:15:43.935Z,23.73
2019-03-24T19:18:10.514Z,22.70
2019-03-24T19:20:37.259Z,25.00
2019-03-24T19:23:04.468Z,26.30
2019-03-24T19:25:31.188Z,24.57
2019-03-24T19:27:58.075Z,24.23
2019-03-24T19:30:30.387Z,27.73
2019-03-24T19:32:57.614Z,27.20
2019-03-24T19:35:24.739Z,23.00
2019-03-24T19:37:52.946Z,22.63
2019-03-24T19:40:25.276Z,22.17
2019-03-24T19:42:54.027Z,20.90
2019-03-24T19:45:21.304Z,21.20
2019-03-24T19:47:47.948Z,22.80
2019-03-24T19:50:14.760Z,21.47
2019-03-24T19:52:44.865Z,23.43
2019-03-24T19:55:10.523Z,22.20
2019-03-24T19:57:37.235Z,20.60
2019-03-24T20:00:06.409Z,23.47
2019-03-24T20:02:33.874Z,22.13
2019-03-24T20:05:20.663Z,23.13
2019-03-24T20:07:48.424Z,22.70
2019-03-24T20:10:15.395Z,21.50
2019-03-24T20:12:41.983Z,23.93
2019-03-24T20:15:10.379Z,27.67
2019-03-24T20:17:38.137Z,31.93
2019-03-24T20:20:05.419Z,37.40
2019-03-24T20:22:32.666Z,39.07
2019-03-24T20:24:59.327Z,34.50
2019-03-24T20:27:26.342Z,34.10
2019-03-24T20:29:53.209Z,29.57
2019-03-24T20:32:20.218Z,32.83
2019-03-24T20:34:47.232Z,43.20
2019-03-24T20:37:14.073Z,47.70
2019-03-24T20:39:40.984Z,47.47
2019-03-24T20:42:07.785Z,48.50
2019-03-24T20:44:34.595Z,52.90
2019-03-24T20:47:05.601Z,52.00
2019-03-24T20:49:32.239Z,51.83
2019-03-24T20:51:58.901Z,51.30
2019-03-24T20:54:25.513Z,50.53
2019-03-24T20:56:54.251Z,51.97
2019-03-24T20:59:22.729Z,53.03
2019-03-24T21:01:49.390Z,54.23
2019-03-24T21:04:16.173Z,56.43
2019-03-24T21:06:42.741Z,56.40
2019-03-24T21:09:09.422Z,55.43
2019-03-24T21:11:36.441Z,57.70
2019-03-24T21:14:04.056Z,57.80
2019-03-24T21:16:30.795Z,52.40
2019-03-24T21:18:57.396Z,51.17
2019-03-24T21:21:24.216Z,51.07
2019-03-24T21:23:51.016Z,50.83
2019-03-24T21:26:17.729Z,48.70
2019-03-24T21:28:44.280Z,48.27
2019-03-24T21:31:11.088Z,45.63
2019-03-24T21:33:37.953Z,49.07
2019-03-24T21:36:04.978Z,48.20
2019-03-24T21:38:32.078Z,47.20
2019-03-24T21:40:59.016Z,49.53
2019-03-24T21:43:25.577Z,50.20
2019-03-24T21:45:52.368Z,51.13
2019-03-24T21:48:19.101Z,45.93
2019-03-24T21:50:45.688Z,45.30
2019-03-24T21:53:12.461Z,45.07
2019-03-24T21:55:39.191Z,47.70
2019-03-24T21:58:05.783Z,49.87
2019-03-24T22:00:35.002Z,48.90
2019-03-24T22:03:02.615Z,53.20
2019-03-24T22:05:29.498Z,53.73
2019-03-24T22:07:56.399Z,54.50
2019-03-24T22:10:23.174Z,53.37
2019-03-24T22:12:50.403Z,53.03
2019-03-24T22:15:17.000Z,51.33
2019-03-24T22:17:43.567Z,50.20
2019-03-24T22:20:10.824Z,50.83
2019-03-24T22:22:37.406Z,51.13
2019-03-24T22:26:00.646Z,47.80
2019-03-24T22:28:27.245Z,51.83
2019-03-24T22:30:54.001Z,49.13
2019-03-24T22:33:20.702Z,50.17
2019-03-24T22:35:47.563Z,50.73
2019-03-24T22:38:14.232Z,48.63
2019-03-24T22:40:40.822Z,45.77
2019-03-24T22:43:07.715Z,49.73
2019-03-24T22:45:34.423Z,51.20
2019-03-24T22:48:01.172Z,50.90
2019-03-24T22:50:27.891Z,52.03
2019-03-24T22:52:54.580Z,52.07
2019-03-24T22:55:21.398Z,49.93
2019-03-24T22:57:49.196Z,52.37
2019-03-24T23:00:18.978Z,53.00
2019-03-24T23:02:46.667Z,53.73
2019-03-24T23:05:13.354Z,54.63
2019-03-24T23:07:40.176Z,56.90
2019-03-24T23:10:07.263Z,57.60
2019-03-24T23:12:34.082Z,56.17
2019-03-24T23:15:00.671Z,55.07
2019-03-24T23:17:27.444Z,51.67
2019-03-24T23:19:54.027Z,51.93
2019-03-24T23:22:20.906Z,50.00
2019-03-24T23:24:47.901Z,46.57
2019-03-24T23:27:16.528Z,48.13
2019-03-24T23:29:43.147Z,46.73
2019-03-24T23:32:09.842Z,44.93
2019-03-24T23:34:36.755Z,43.40
2019-03-24T23:37:59.850Z,43.50
2019-03-24T23:40:26.507Z,44.50
2019-03-24T23:42:53.386Z,45.77
2019-03-24T23:45:20.218Z,45.33
2019-03-24T23:48:43.216Z,48.33
2019-03-24T23:51:09.783Z,46.83
2019-03-24T23:53:36.396Z,49.83
2019-03-24T23:56:03.201Z,50.33
2019-03-24T23:58:40.328Z,53.93
